sensor_id;sensor_type;location;lat;lon;timestamp;P1;durP1;ratioP1;P2;durP2;ratioP2
70467;SDS011;57934;51.532;7.684;2022-07-23T00:01:36;19.35;;;11.70;;
70467;SDS011;57934;51.532;7.684;2022-07-23T00:04:02;16.48;;;10.82;;
70467;SDS011;57934;51.532;7.684;2022-07-23T00:06:28;18.52;;;10.15;;
70467;SDS011;57934;51.532;7.684;2022-07-23T00:08:54;16.67;;;11.52;;
70467;SDS011;57934;51.532;7.684;2022-07-23T00:11:20;20.50;;;11.48;;
70467;SDS011;57934;51.532;7.684;2022-07-23T00:13:47;19.88;;;12.07;;
70467;SDS011;57934;51.532;7.684;2022-07-23T00:16:14;18.92;;;11.98;;
70467;SDS011;57934;51.532;7.684;2022-07-23T00:18:40;20.45;;;12.30;;
70467;SDS011;57934;51.532;7.684;2022-07-23T00:21:06;19.55;;;13.40;;
70467;SDS011;57934;51.532;7.684;2022-07-23T00:23:32;19.95;;;11.98;;
70467;SDS011;57934;51.532;7.684;2022-07-23T00:25:58;17.40;;;13.20;;
70467;SDS011;57934;51.532;7.684;2022-07-23T00:28:25;20.13;;;14.02;;
70467;SDS011;57934;51.532;7.684;2022-07-23T00:30:51;20.83;;;14.23;;
70467;SDS011;57934;51.532;7.684;2022-07-23T00:33:17;18.50;;;14.32;;
70467;SDS011;57934;51.532;7.684;2022-07-23T00:35:43;26.27;;;16.27;;
70467;SDS011;57934;51.532;7.684;2022-07-23T00:38:09;24.67;;;16.23;;
70467;SDS011;57934;51.532;7.684;2022-07-23T00:40:36;26.13;;;15.77;;
70467;SDS011;57934;51.532;7.684;2022-07-23T00:43:03;30.42;;;17.15;;
70467;SDS011;57934;51.532;7.684;2022-07-23T00:45:30;29.45;;;17.90;;
70467;SDS011;57934;51.532;7.684;2022-07-23T00:47:56;33.17;;;19.98;;
70467;SDS011;57934;51.532;7.684;2022-07-23T00:50:22;36.83;;;19.92;;
70467;SDS011;57934;51.532;7.684;2022-07-23T00:52:49;34.70;;;20.98;;
70467;SDS011;57934;51.532;7.684;2022-07-23T00:55:15;31.73;;;21.23;;
70467;SDS011;57934;51.532;7.684;2022-07-23T00:57:41;40.20;;;23.20;;
70467;SDS011;57934;51.532;7.684;2022-07-23T01:00:09;39.80;;;21.92;;
70467;SDS011;57934;51.532;7.684;2022-07-23T01:02:37;37.17;;;22.77;;
70467;SDS011;57934;51.532;7.684;2022-07-23T01:05:04;41.83;;;22.25;;
70467;SDS011;57934;51.532;7.684;2022-07-23T01:07:31;36.95;;;23.98;;
70467;SDS011;57934;51.532;7.684;2022-07-23T01:09:57;41.20;;;24.38;;
70467;SDS011;57934;51.532;7.684;2022-07-23T01:12:23;41.70;;;24.85;;
70467;SDS011;57934;51.532;7.684;2022-07-23T01:14:54;40.03;;;23.95;;
70467;SDS011;57934;51.532;7.684;2022-07-23T01:17:24;38.97;;;24.13;;
70467;SDS011;57934;51.532;7.684;2022-07-23T01:19:50;37.45;;;22.52;;
70467;SDS011;57934;51.532;7.684;2022-07-23T01:22:18;42.63;;;23.17;;
70467;SDS011;57934;51.532;7.684;2022-07-23T01:24:45;39.88;;;23.73;;
70467;SDS011;57934;51.532;7.684;2022-07-23T01:27:11;40.70;;;23.98;;
70467;SDS011;57934;51.532;7.684;2022-07-23T01:29:38;38.95;;;24.75;;
70467;SDS011;57934;51.532;7.684;2022-07-23T01:32:11;42.13;;;23.60;;
70467;SDS011;57934;51.532;7.684;2022-07-23T01:34:37;36.55;;;22.73;;
70467;SDS011;57934;51.532;7.684;2022-07-23T01:37:03;33.03;;;22.77;;
70467;SDS011;57934;51.532;7.684;2022-07-23T01:39:30;39.85;;;24.13;;
70467;SDS011;57934;51.532;7.684;2022-07-23T01:41:56;37.65;;;23.60;;
70467;SDS011;57934;51.532;7.684;2022-07-23T01:44:23;41.40;;;24.65;;
70467;SDS011;57934;51.532;7.684;2022-07-23T01:46:49;36.22;;;24.00;;
70467;SDS011;57934;51.532;7.684;2022-07-23T01:49:17;43.70;;;24.38;;
70467;SDS011;57934;51.532;7.684;2022-07-23T01:52:02;39.88;;;24.30;;
70467;SDS011;57934;51.532;7.684;2022-07-23T01:54:34;43.55;;;25.55;;
70467;SDS011;57934;51.532;7.684;2022-07-23T01:57:02;41.35;;;25.88;;
70467;SDS011;57934;51.532;7.684;2022-07-23T01:59:29;38.63;;;24.73;;
70467;SDS011;57934;51.532;7.684;2022-07-23T02:01:55;43.13;;;25.05;;
70467;SDS011;57934;51.532;7.684;2022-07-23T02:04:22;42.67;;;24.90;;
70467;SDS011;57934;51.532;7.684;2022-07-23T02:06:51;39.70;;;24.38;;
70467;SDS011;57934;51.532;7.684;2022-07-23T02:09:18;38.92;;;23.63;;
70467;SDS011;57934;51.532;7.684;2022-07-23T02:11:46;38.70;;;23.42;;
70467;SDS011;57934;51.532;7.684;2022-07-23T02:14:12;41.53;;;25.02;;
70467;SDS011;57934;51.532;7.684;2022-07-23T02:16:39;44.13;;;25.52;;
70467;SDS011;57934;51.532;7.684;2022-07-23T02:19:05;42.72;;;25.67;;
70467;SDS011;57934;51.532;7.684;2022-07-23T02:21:31;38.65;;;24.38;;
70467;SDS011;57934;51.532;7.684;2022-07-23T02:23:57;43.25;;;26.00;;
70467;SDS011;57934;51.532;7.684;2022-07-23T02:26:23;46.88;;;25.02;;
70467;SDS011;57934;51.532;7.684;2022-07-23T02:28:51;36.95;;;23.38;;
70467;SDS011;57934;51.532;7.684;2022-07-23T02:31:19;35.10;;;24.00;;
70467;SDS011;57934;51.532;7.684;2022-07-23T02:33:45;42.15;;;23.98;;
70467;SDS011;57934;51.532;7.684;2022-07-23T02:36:11;31.70;;;22.60;;
70467;SDS011;57934;51.532;7.684;2022-07-23T02:38:37;38.58;;;22.95;;
70467;SDS011;57934;51.532;7.684;2022-07-23T02:41:03;39.55;;;24.52;;
70467;SDS011;57934;51.532;7.684;2022-07-23T02:43:31;35.47;;;25.05;;
70467;SDS011;57934;51.532;7.684;2022-07-23T02:45:57;41.17;;;25.23;;
70467;SDS011;57934;51.532;7.684;2022-07-23T02:48:23;36.63;;;24.38;;
70467;SDS011;57934;51.532;7.684;2022-07-23T02:50:49;39.00;;;25.65;;
70467;SDS011;57934;51.532;7.684;2022-07-23T02:53:20;38.50;;;24.85;;
70467;SDS011;57934;51.532;7.684;2022-07-23T02:55:47;37.33;;;25.15;;
70467;SDS011;57934;51.532;7.684;2022-07-23T02:58:13;39.63;;;26.10;;
70467;SDS011;57934;51.532;7.684;2022-07-23T03:00:40;40.50;;;25.85;;
70467;SDS011;57934;51.532;7.684;2022-07-23T03:03:06;42.63;;;24.63;;
70467;SDS011;57934;51.532;7.684;2022-07-23T03:05:33;39.40;;;25.33;;
70467;SDS011;57934;51.532;7.684;2022-07-23T03:07:59;46.35;;;27.17;;
70467;SDS011;57934;51.532;7.684;2022-07-23T03:10:25;45.95;;;28.27;;
70467;SDS011;57934;51.532;7.684;2022-07-23T03:12:51;42.50;;;26.17;;
70467;SDS011;57934;51.532;7.684;2022-07-23T03:15:18;43.50;;;26.83;;
70467;SDS011;57934;51.532;7.684;2022-07-23T03:17:44;49.58;;;27.92;;
70467;SDS011;57934;51.532;7.684;2022-07-23T03:20:10;42.88;;;27.52;;
70467;SDS011;57934;51.532;7.684;2022-07-23T03:22:38;45.75;;;28.48;;
70467;SDS011;57934;51.532;7.684;2022-07-23T03:25:04;48.25;;;28.77;;
70467;SDS011;57934;51.532;7.684;2022-07-23T03:27:33;45.45;;;27.67;;
70467;SDS011;57934;51.532;7.684;2022-07-23T03:30:00;44.38;;;27.95;;
70467;SDS011;57934;51.532;7.684;2022-07-23T03:32:26;41.53;;;25.83;;
70467;SDS011;57934;51.532;7.684;2022-07-23T03:34:52;46.15;;;28.58;;
70467;SDS011;57934;51.532;7.684;2022-07-23T03:37:18;45.83;;;27.83;;
70467;SDS011;57934;51.532;7.684;2022-07-23T03:39:46;40.50;;;26.23;;
70467;SDS011;57934;51.532;7.684;2022-07-23T03:42:12;47.08;;;27.50;;
70467;SDS011;57934;51.532;7.684;2022-07-23T03:44:38;41.95;;;27.17;;
70467;SDS011;57934;51.532;7.684;2022-07-23T03:47:04;44.97;;;28.17;;
70467;SDS011;57934;51.532;7.684;2022-07-23T03:49:32;43.60;;;28.23;;
70467;SDS011;57934;51.532;7.684;2022-07-23T03:51:58;51.17;;;28.85;;
70467;SDS011;57934;51.532;7.684;2022-07-23T03:54:24;43.65;;;26.30;;
70467;SDS011;57934;51.532;7.684;2022-07-23T03:56:50;43.33;;;26.58;;
70467;SDS011;57934;51.532;7.684;2022-07-23T03:59:17;42.58;;;26.63;;
70467;SDS011;57934;51.532;7.684;2022-07-23T04:01:43;41.20;;;26.15;;
70467;SDS011;57934;51.532;7.684;2022-07-23T04:04:10;42.88;;;28.10;;
70467;SDS011;57934;51.532;7.684;2022-07-23T04:06:39;41.90;;;27.33;;
70467;SDS011;57934;51.532;7.684;2022-07-23T04:09:05;38.05;;;26.10;;
70467;SDS011;57934;51.532;7.684;2022-07-23T04:11:32;44.15;;;26.90;;
70467;SDS011;57934;51.532;7.684;2022-07-23T04:13:58;43.38;;;26.83;;
70467;SDS011;57934;51.532;7.684;2022-07-23T04:16:24;41.60;;;24.98;;
70467;SDS011;57934;51.532;7.684;2022-07-23T04:18:50;40.42;;;26.63;;
70467;SDS011;57934;51.532;7.684;2022-07-23T04:21:20;40.10;;;24.90;;
70467;SDS011;57934;51.532;7.684;2022-07-23T04:23:46;35.65;;;24.48;;
70467;SDS011;57934;51.532;7.684;2022-07-23T04:26:13;37.33;;;26.50;;
70467;SDS011;57934;51.532;7.684;2022-07-23T04:28:39;38.65;;;25.17;;
70467;SDS011;57934;51.532;7.684;2022-07-23T04:31:05;35.97;;;25.20;;
70467;SDS011;57934;51.532;7.684;2022-07-23T04:33:33;35.78;;;25.05;;
70467;SDS011;57934;51.532;7.684;2022-07-23T04:36:03;42.20;;;25.52;;
70467;SDS011;57934;51.532;7.684;2022-07-23T04:38:30;40.10;;;25.63;;
70467;SDS011;57934;51.532;7.684;2022-07-23T04:40:59;37.92;;;25.67;;
70467;SDS011;57934;51.532;7.684;2022-07-23T04:43:26;45.03;;;28.13;;
70467;SDS011;57934;51.532;7.684;2022-07-23T04:45:53;43.72;;;27.20;;
70467;SDS011;57934;51.532;7.684;2022-07-23T04:48:19;39.60;;;27.58;;
70467;SDS011;57934;51.532;7.684;2022-07-23T04:50:47;40.50;;;26.08;;
70467;SDS011;57934;51.532;7.684;2022-07-23T04:53:22;41.45;;;25.83;;
70467;SDS011;57934;51.532;7.684;2022-07-23T04:55:50;37.10;;;25.77;;
70467;SDS011;57934;51.532;7.684;2022-07-23T04:58:16;42.45;;;26.58;;
70467;SDS011;57934;51.532;7.684;2022-07-23T05:00:42;39.47;;;26.48;;
70467;SDS011;57934;51.532;7.684;2022-07-23T05:03:09;39.00;;;25.48;;
70467;SDS011;57934;51.532;7.684;2022-07-23T05:05:35;34.95;;;25.23;;
70467;SDS011;57934;51.532;7.684;2022-07-23T05:08:09;34.13;;;23.00;;
70467;SDS011;57934;51.532;7.684;2022-07-23T05:10:37;33.95;;;24.45;;
70467;SDS011;57934;51.532;7.684;2022-07-23T05:13:03;34.22;;;25.50;;
70467;SDS011;57934;51.532;7.684;2022-07-23T05:15:29;35.08;;;23.45;;
70467;SDS011;57934;51.532;7.684;2022-07-23T05:17:56;34.03;;;26.27;;
70467;SDS011;57934;51.532;7.684;2022-07-23T05:20:22;38.15;;;25.33;;
70467;SDS011;57934;51.532;7.684;2022-07-23T05:22:48;36.85;;;25.17;;
70467;SDS011;57934;51.532;7.684;2022-07-23T05:25:14;34.88;;;25.38;;
70467;SDS011;57934;51.532;7.684;2022-07-23T05:27:40;39.60;;;25.85;;
70467;SDS011;57934;51.532;7.684;2022-07-23T05:30:06;34.80;;;24.42;;
70467;SDS011;57934;51.532;7.684;2022-07-23T05:32:36;30.23;;;22.77;;
70467;SDS011;57934;51.532;7.684;2022-07-23T05:35:11;29.55;;;23.08;;
70467;SDS011;57934;51.532;7.684;2022-07-23T05:37:41;39.33;;;24.33;;
70467;SDS011;57934;51.532;7.684;2022-07-23T05:40:08;33.90;;;22.65;;
70467;SDS011;57934;51.532;7.684;2022-07-23T05:42:37;30.27;;;22.02;;
70467;SDS011;57934;51.532;7.684;2022-07-23T05:45:05;35.75;;;23.95;;
70467;SDS011;57934;51.532;7.684;2022-07-23T05:47:45;34.15;;;23.95;;
70467;SDS011;57934;51.532;7.684;2022-07-23T05:50:19;31.92;;;23.45;;
70467;SDS011;57934;51.532;7.684;2022-07-23T05:52:50;30.75;;;23.10;;
70467;SDS011;57934;51.532;7.684;2022-07-23T05:55:31;33.72;;;22.70;;
70467;SDS011;57934;51.532;7.684;2022-07-23T05:57:58;31.27;;;22.67;;
70467;SDS011;57934;51.532;7.684;2022-07-23T06:00:24;29.23;;;23.73;;
70467;SDS011;57934;51.532;7.684;2022-07-23T06:02:51;31.00;;;23.30;;
70467;SDS011;57934;51.532;7.684;2022-07-23T06:05:17;33.40;;;24.38;;
70467;SDS011;57934;51.532;7.684;2022-07-23T06:07:45;30.90;;;23.60;;
70467;SDS011;57934;51.532;7.684;2022-07-23T06:10:12;32.53;;;23.98;;
70467;SDS011;57934;51.532;7.684;2022-07-23T06:12:38;31.05;;;23.92;;
70467;SDS011;57934;51.532;7.684;2022-07-23T06:15:04;31.20;;;24.08;;
70467;SDS011;57934;51.532;7.684;2022-07-23T06:17:32;35.03;;;24.52;;
70467;SDS011;57934;51.532;7.684;2022-07-23T06:19:59;35.08;;;24.80;;
70467;SDS011;57934;51.532;7.684;2022-07-23T06:22:25;31.10;;;23.35;;
70467;SDS011;57934;51.532;7.684;2022-07-23T06:24:51;27.65;;;23.42;;
70467;SDS011;57934;51.532;7.684;2022-07-23T06:27:19;30.75;;;24.55;;
70467;SDS011;57934;51.532;7.684;2022-07-23T06:29:45;30.50;;;23.25;;
70467;SDS011;57934;51.532;7.684;2022-07-23T06:32:11;34.03;;;24.08;;
70467;SDS011;57934;51.532;7.684;2022-07-23T06:34:37;29.80;;;22.25;;
70467;SDS011;57934;51.532;7.684;2022-07-23T06:37:03;36.42;;;23.90;;
70467;SDS011;57934;51.532;7.684;2022-07-23T06:39:29;31.23;;;23.27;;
70467;SDS011;57934;51.532;7.684;2022-07-23T06:41:57;27.65;;;23.23;;
70467;SDS011;57934;51.532;7.684;2022-07-23T06:44:35;29.63;;;22.88;;
70467;SDS011;57934;51.532;7.684;2022-07-23T06:47:01;29.63;;;22.27;;
70467;SDS011;57934;51.532;7.684;2022-07-23T06:49:27;29.08;;;22.90;;
70467;SDS011;57934;51.532;7.684;2022-07-23T06:51:56;30.83;;;23.02;;
70467;SDS011;57934;51.532;7.684;2022-07-23T06:54:22;29.58;;;21.60;;
70467;SDS011;57934;51.532;7.684;2022-07-23T06:56:48;32.17;;;22.75;;
70467;SDS011;57934;51.532;7.684;2022-07-23T06:59:14;35.65;;;22.58;;
70467;SDS011;57934;51.532;7.684;2022-07-23T07:01:42;31.40;;;21.77;;
70467;SDS011;57934;51.532;7.684;2022-07-23T07:04:08;28.73;;;21.75;;
70467;SDS011;57934;51.532;7.684;2022-07-23T07:06:34;33.63;;;23.27;;
70467;SDS011;57934;51.532;7.684;2022-07-23T07:09:00;32.20;;;22.15;;
70467;SDS011;57934;51.532;7.684;2022-07-23T07:11:26;31.65;;;24.23;;
70467;SDS011;57934;51.532;7.684;2022-07-23T07:13:52;30.98;;;24.15;;
70467;SDS011;57934;51.532;7.684;2022-07-23T07:16:18;32.15;;;23.00;;
70467;SDS011;57934;51.532;7.684;2022-07-23T07:18:44;29.08;;;23.13;;
70467;SDS011;57934;51.532;7.684;2022-07-23T07:21:10;30.35;;;22.98;;
70467;SDS011;57934;51.532;7.684;2022-07-23T07:23:36;31.38;;;23.17;;
70467;SDS011;57934;51.532;7.684;2022-07-23T07:26:02;35.80;;;24.33;;
70467;SDS011;57934;51.532;7.684;2022-07-23T07:28:28;37.97;;;25.88;;
70467;SDS011;57934;51.532;7.684;2022-07-23T07:30:54;36.65;;;26.10;;
70467;SDS011;57934;51.532;7.684;2022-07-23T07:33:20;35.45;;;27.73;;
70467;SDS011;57934;51.532;7.684;2022-07-23T07:35:47;33.80;;;25.45;;
70467;SDS011;57934;51.532;7.684;2022-07-23T07:38:13;34.97;;;25.73;;
70467;SDS011;57934;51.532;7.684;2022-07-23T07:40:39;38.45;;;26.77;;
70467;SDS011;57934;51.532;7.684;2022-07-23T07:43:05;37.10;;;28.50;;
70467;SDS011;57934;51.532;7.684;2022-07-23T07:45:31;36.63;;;29.60;;
70467;SDS011;57934;51.532;7.684;2022-07-23T07:47:57;42.03;;;30.85;;
70467;SDS011;57934;51.532;7.684;2022-07-23T07:50:23;37.67;;;30.20;;
70467;SDS011;57934;51.532;7.684;2022-07-23T07:52:50;44.20;;;31.73;;
70467;SDS011;57934;51.532;7.684;2022-07-23T07:55:16;43.80;;;34.38;;
70467;SDS011;57934;51.532;7.684;2022-07-23T07:57:42;43.30;;;35.22;;
70467;SDS011;57934;51.532;7.684;2022-07-23T08:00:08;44.30;;;34.22;;
70467;SDS011;57934;51.532;7.684;2022-07-23T08:02:46;40.78;;;32.60;;
70467;SDS011;57934;51.532;7.684;2022-07-23T08:05:25;37.25;;;30.92;;
70467;SDS011;57934;51.532;7.684;2022-07-23T08:07:52;37.70;;;31.42;;
70467;SDS011;57934;51.532;7.684;2022-07-23T08:10:19;39.28;;;32.20;;
70467;SDS011;57934;51.532;7.684;2022-07-23T08:12:46;36.60;;;30.50;;
70467;SDS011;57934;51.532;7.684;2022-07-23T08:15:13;36.80;;;31.10;;
70467;SDS011;57934;51.532;7.684;2022-07-23T08:17:42;36.08;;;32.30;;
70467;SDS011;57934;51.532;7.684;2022-07-23T08:20:09;32.97;;;29.48;;
70467;SDS011;57934;51.532;7.684;2022-07-23T08:22:43;29.70;;;25.02;;
70467;SDS011;57934;51.532;7.684;2022-07-23T08:25:21;31.02;;;25.55;;
70467;SDS011;57934;51.532;7.684;2022-07-23T08:27:51;23.48;;;20.95;;
70467;SDS011;57934;51.532;7.684;2022-07-23T08:30:17;23.42;;;21.08;;
70467;SDS011;57934;51.532;7.684;2022-07-23T08:32:51;24.50;;;21.05;;
70467;SDS011;57934;51.532;7.684;2022-07-23T08:35:26;22.20;;;19.02;;
70467;SDS011;57934;51.532;7.684;2022-07-23T08:37:52;28.38;;;25.45;;
70467;SDS011;57934;51.532;7.684;2022-07-23T08:40:19;26.45;;;23.67;;
70467;SDS011;57934;51.532;7.684;2022-07-23T08:42:47;27.70;;;24.95;;
70467;SDS011;57934;51.532;7.684;2022-07-23T08:45:15;27.70;;;24.90;;
70467;SDS011;57934;51.532;7.684;2022-07-23T08:47:43;21.70;;;19.70;;
70467;SDS011;57934;51.532;7.684;2022-07-23T08:50:10;22.40;;;20.08;;
70467;SDS011;57934;51.532;7.684;2022-07-23T08:52:36;23.23;;;20.83;;
70467;SDS011;57934;51.532;7.684;2022-07-23T08:55:04;24.38;;;21.95;;
70467;SDS011;57934;51.532;7.684;2022-07-23T08:57:30;23.88;;;21.52;;
70467;SDS011;57934;51.532;7.684;2022-07-23T08:59:56;25.73;;;23.25;;
70467;SDS011;57934;51.532;7.684;2022-07-23T09:02:23;17.15;;;15.35;;
70467;SDS011;57934;51.532;7.684;2022-07-23T09:04:49;16.25;;;14.85;;
70467;SDS011;57934;51.532;7.684;2022-07-23T09:07:15;16.90;;;15.20;;
70467;SDS011;57934;51.532;7.684;2022-07-23T09:09:41;15.27;;;13.63;;
70467;SDS011;57934;51.532;7.684;2022-07-23T09:12:08;14.95;;;13.65;;
70467;SDS011;57934;51.532;7.684;2022-07-23T09:14:44;13.35;;;12.00;;
70467;SDS011;57934;51.532;7.684;2022-07-23T09:17:15;11.45;;;10.35;;
70467;SDS011;57934;51.532;7.684;2022-07-23T09:19:42;12.15;;;10.90;;
70467;SDS011;57934;51.532;7.684;2022-07-23T09:22:19;21.60;;;19.50;;
70467;SDS011;57934;51.532;7.684;2022-07-23T09:25:03;20.25;;;18.15;;
70467;SDS011;57934;51.532;7.684;2022-07-23T09:27:45;19.17;;;17.30;;
70467;SDS011;57934;51.532;7.684;2022-07-23T09:30:13;14.55;;;13.15;;
70467;SDS011;57934;51.532;7.684;2022-07-23T09:32:39;14.25;;;10.95;;
70467;SDS011;57934;51.532;7.684;2022-07-23T09:35:05;12.68;;;11.43;;
70467;SDS011;57934;51.532;7.684;2022-07-23T09:37:32;9.38;;;8.48;;
70467;SDS011;57934;51.532;7.684;2022-07-23T09:40:08;12.82;;;11.23;;
70467;SDS011;57934;51.532;7.684;2022-07-23T09:42:35;13.52;;;10.02;;
70467;SDS011;57934;51.532;7.684;2022-07-23T09:45:01;12.07;;;10.45;;
70467;SDS011;57934;51.532;7.684;2022-07-23T09:47:29;11.23;;;10.20;;
70467;SDS011;57934;51.532;7.684;2022-07-23T09:50:01;12.48;;;11.27;;
70467;SDS011;57934;51.532;7.684;2022-07-23T09:52:45;13.60;;;12.40;;
70467;SDS011;57934;51.532;7.684;2022-07-23T09:55:13;14.98;;;13.48;;
70467;SDS011;57934;51.532;7.684;2022-07-23T09:57:42;15.60;;;14.10;;
70467;SDS011;57934;51.532;7.684;2022-07-23T10:00:15;15.68;;;14.02;;
70467;SDS011;57934;51.532;7.684;2022-07-23T10:02:41;15.00;;;13.60;;
70467;SDS011;57934;51.532;7.684;2022-07-23T10:05:26;17.02;;;14.50;;
70467;SDS011;57934;51.532;7.684;2022-07-23T10:08:11;14.30;;;12.95;;
70467;SDS011;57934;51.532;7.684;2022-07-23T10:10:56;18.33;;;16.10;;
70467;SDS011;57934;51.532;7.684;2022-07-23T10:13:44;16.80;;;15.23;;
70467;SDS011;57934;51.532;7.684;2022-07-23T10:16:35;19.67;;;17.75;;
70467;SDS011;57934;51.532;7.684;2022-07-23T10:19:04;19.52;;;13.55;;
70467;SDS011;57934;51.532;7.684;2022-07-23T10:21:34;9.90;;;9.10;;
70467;SDS011;57934;51.532;7.684;2022-07-23T10:24:22;10.52;;;8.20;;
70467;SDS011;57934;51.532;7.684;2022-07-23T10:30:11;8.43;;;7.45;;
70467;SDS011;57934;51.532;7.684;2022-07-23T10:35:38;10.05;;;6.72;;
70467;SDS011;57934;51.532;7.684;2022-07-23T10:38:20;6.75;;;6.05;;
70467;SDS011;57934;51.532;7.684;2022-07-23T10:43:21;7.22;;;5.88;;
70467;SDS011;57934;51.532;7.684;2022-07-23T10:45:48;6.85;;;6.35;;
70467;SDS011;57934;51.532;7.684;2022-07-23T10:50:42;8.43;;;7.13;;
70467;SDS011;57934;51.532;7.684;2022-07-23T10:53:14;6.97;;;5.90;;
70467;SDS011;57934;51.532;7.684;2022-07-23T10:55:44;6.07;;;5.47;;
70467;SDS011;57934;51.532;7.684;2022-07-23T10:58:18;5.97;;;5.10;;
70467;SDS011;57934;51.532;7.684;2022-07-23T11:00:46;5.78;;;5.05;;
70467;SDS011;57934;51.532;7.684;2022-07-23T11:03:29;7.03;;;5.00;;
70467;SDS011;57934;51.532;7.684;2022-07-23T11:06:02;8.73;;;6.15;;
70467;SDS011;57934;51.532;7.684;2022-07-23T11:08:29;6.20;;;5.50;;
70467;SDS011;57934;51.532;7.684;2022-07-23T11:10:56;5.07;;;3.75;;
70467;SDS011;57934;51.532;7.684;2022-07-23T11:13:36;4.15;;;3.45;;
70467;SDS011;57934;51.532;7.684;2022-07-23T11:16:12;6.18;;;3.95;;
70467;SDS011;57934;51.532;7.684;2022-07-23T11:34:24;4.28;;;3.88;;
70467;SDS011;57934;51.532;7.684;2022-07-23T11:36:53;4.82;;;3.75;;
70467;SDS011;57934;51.532;7.684;2022-07-23T11:39:20;3.65;;;3.03;;
70467;SDS011;57934;51.532;7.684;2022-07-23T11:41:47;4.22;;;3.50;;
70467;SDS011;57934;51.532;7.684;2022-07-23T11:44:26;4.70;;;3.53;;
70467;SDS011;57934;51.532;7.684;2022-07-23T11:47:03;4.25;;;3.10;;
70467;SDS011;57934;51.532;7.684;2022-07-23T11:49:37;3.60;;;3.08;;
70467;SDS011;57934;51.532;7.684;2022-07-23T11:54:35;3.65;;;3.10;;
70467;SDS011;57934;51.532;7.684;2022-07-23T11:57:11;3.83;;;2.65;;
70467;SDS011;57934;51.532;7.684;2022-07-23T11:59:37;3.03;;;2.40;;
70467;SDS011;57934;51.532;7.684;2022-07-23T12:02:05;3.10;;;2.80;;
70467;SDS011;57934;51.532;7.684;2022-07-23T12:04:42;3.00;;;2.17;;
70467;SDS011;57934;51.532;7.684;2022-07-23T12:07:29;3.85;;;2.97;;
70467;SDS011;57934;51.532;7.684;2022-07-23T12:09:56;4.47;;;3.05;;
70467;SDS011;57934;51.532;7.684;2022-07-23T12:12:24;4.28;;;2.85;;
70467;SDS011;57934;51.532;7.684;2022-07-23T12:14:52;4.05;;;2.65;;
70467;SDS011;57934;51.532;7.684;2022-07-23T12:17:20;5.97;;;3.17;;
70467;SDS011;57934;51.532;7.684;2022-07-23T12:19:46;3.30;;;3.00;;
70467;SDS011;57934;51.532;7.684;2022-07-23T12:22:13;6.47;;;3.08;;
70467;SDS011;57934;51.532;7.684;2022-07-23T12:24:52;3.63;;;3.05;;
70467;SDS011;57934;51.532;7.684;2022-07-23T12:27:25;5.55;;;3.30;;
70467;SDS011;57934;51.532;7.684;2022-07-23T12:29:52;4.55;;;2.88;;
70467;SDS011;57934;51.532;7.684;2022-07-23T12:32:20;3.17;;;2.75;;
70467;SDS011;57934;51.532;7.684;2022-07-23T12:34:49;3.92;;;3.38;;
70467;SDS011;57934;51.532;7.684;2022-07-23T12:37:29;4.80;;;2.90;;
70467;SDS011;57934;51.532;7.684;2022-07-23T12:39:57;5.20;;;3.30;;
70467;SDS011;57934;51.532;7.684;2022-07-23T12:42:23;3.83;;;3.10;;
70467;SDS011;57934;51.532;7.684;2022-07-23T12:45:06;5.65;;;2.72;;
70467;SDS011;57934;51.532;7.684;2022-07-23T12:53:08;3.85;;;2.70;;
70467;SDS011;57934;51.532;7.684;2022-07-23T12:55:36;6.03;;;2.40;;
70467;SDS011;57934;51.532;7.684;2022-07-23T13:00:56;3.28;;;2.78;;
70467;SDS011;57934;51.532;7.684;2022-07-23T13:05:51;5.07;;;2.60;;
70467;SDS011;57934;51.532;7.684;2022-07-23T13:08:17;5.40;;;2.75;;
70467;SDS011;57934;51.532;7.684;2022-07-23T13:10:43;3.83;;;2.90;;
70467;SDS011;57934;51.532;7.684;2022-07-23T13:13:14;3.83;;;3.30;;
70467;SDS011;57934;51.532;7.684;2022-07-23T13:15:42;5.88;;;3.33;;
70467;SDS011;57934;51.532;7.684;2022-07-23T13:18:09;4.15;;;3.13;;
70467;SDS011;57934;51.532;7.684;2022-07-23T13:20:35;5.00;;;2.80;;
70467;SDS011;57934;51.532;7.684;2022-07-23T13:23:02;3.22;;;2.92;;
70467;SDS011;57934;51.532;7.684;2022-07-23T13:25:28;3.15;;;2.42;;
70467;SDS011;57934;51.532;7.684;2022-07-23T13:27:53;5.20;;;3.08;;
70467;SDS011;57934;51.532;7.684;2022-07-23T13:30:19;4.15;;;2.42;;
70467;SDS011;57934;51.532;7.684;2022-07-23T13:32:46;2.10;;;2.00;;
70467;SDS011;57934;51.532;7.684;2022-07-23T13:35:13;6.50;;;2.75;;
70467;SDS011;57934;51.532;7.684;2022-07-23T13:37:39;4.95;;;2.60;;
70467;SDS011;57934;51.532;7.684;2022-07-23T13:40:06;5.22;;;2.22;;
70467;SDS011;57934;51.532;7.684;2022-07-23T13:42:32;4.05;;;3.03;;
70467;SDS011;57934;51.532;7.684;2022-07-23T13:44:58;2.50;;;2.10;;
70467;SDS011;57934;51.532;7.684;2022-07-23T13:47:25;2.80;;;2.30;;
70467;SDS011;57934;51.532;7.684;2022-07-23T13:49:51;3.83;;;2.55;;
70467;SDS011;57934;51.532;7.684;2022-07-23T13:52:17;2.95;;;2.35;;
70467;SDS011;57934;51.532;7.684;2022-07-23T13:54:43;3.55;;;1.83;;
70467;SDS011;57934;51.532;7.684;2022-07-23T13:57:09;4.13;;;2.25;;
70467;SDS011;57934;51.532;7.684;2022-07-23T13:59:35;3.40;;;2.13;;
70467;SDS011;57934;51.532;7.684;2022-07-23T14:02:02;3.80;;;2.40;;
70467;SDS011;57934;51.532;7.684;2022-07-23T14:04:29;2.33;;;2.03;;
70467;SDS011;57934;51.532;7.684;2022-07-23T14:06:55;3.33;;;2.33;;
70467;SDS011;57934;51.532;7.684;2022-07-23T14:09:21;4.72;;;2.30;;
70467;SDS011;57934;51.532;7.684;2022-07-23T14:11:47;2.45;;;2.25;;
70467;SDS011;57934;51.532;7.684;2022-07-23T14:14:13;2.58;;;2.35;;
70467;SDS011;57934;51.532;7.684;2022-07-23T14:16:39;2.50;;;2.30;;
70467;SDS011;57934;51.532;7.684;2022-07-23T14:19:05;4.60;;;2.00;;
70467;SDS011;57934;51.532;7.684;2022-07-23T14:21:31;4.30;;;2.40;;
70467;SDS011;57934;51.532;7.684;2022-07-23T14:23:57;3.67;;;3.10;;
70467;SDS011;57934;51.532;7.684;2022-07-23T14:26:23;2.80;;;2.53;;
70467;SDS011;57934;51.532;7.684;2022-07-23T14:28:49;2.90;;;2.67;;
70467;SDS011;57934;51.532;7.684;2022-07-23T14:31:15;2.17;;;1.98;;
70467;SDS011;57934;51.532;7.684;2022-07-23T14:33:41;3.83;;;2.00;;
70467;SDS011;57934;51.532;7.684;2022-07-23T14:36:07;3.95;;;2.30;;
70467;SDS011;57934;51.532;7.684;2022-07-23T14:38:33;3.53;;;2.42;;
70467;SDS011;57934;51.532;7.684;2022-07-23T14:40:59;3.50;;;2.30;;
70467;SDS011;57934;51.532;7.684;2022-07-23T14:43:25;5.95;;;2.30;;
70467;SDS011;57934;51.532;7.684;2022-07-23T14:45:51;3.33;;;2.70;;
70467;SDS011;57934;51.532;7.684;2022-07-23T14:48:17;2.70;;;2.28;;
70467;SDS011;57934;51.532;7.684;2022-07-23T14:50:43;5.82;;;2.38;;
70467;SDS011;57934;51.532;7.684;2022-07-23T14:53:09;6.07;;;2.80;;
70467;SDS011;57934;51.532;7.684;2022-07-23T14:55:35;3.58;;;2.17;;
70467;SDS011;57934;51.532;7.684;2022-07-23T14:58:01;6.15;;;2.30;;
70467;SDS011;57934;51.532;7.684;2022-07-23T15:00:27;3.17;;;2.78;;
70467;SDS011;57934;51.532;7.684;2022-07-23T15:02:53;2.45;;;1.95;;
70467;SDS011;57934;51.532;7.684;2022-07-23T15:05:19;2.65;;;2.38;;
70467;SDS011;57934;51.532;7.684;2022-07-23T15:07:45;5.15;;;2.50;;
70467;SDS011;57934;51.532;7.684;2022-07-23T15:10:13;2.50;;;2.30;;
70467;SDS011;57934;51.532;7.684;2022-07-23T15:12:39;3.33;;;2.78;;
70467;SDS011;57934;51.532;7.684;2022-07-23T15:15:05;6.28;;;2.47;;